createdAt,value
2018-10-05T00:02:04.313Z,14.87
2018-10-05T00:04:34.634Z,15.70
2018-10-05T00:07:04.275Z,15.55
2018-10-05T00:09:33.637Z,14.83
2018-10-05T00:12:03.068Z,13.85
2018-10-05T00:14:33.579Z,16.95
2018-10-05T00:17:03.497Z,17.32
2018-10-05T00:19:32.861Z,20.23
2018-10-05T00:22:02.154Z,14.35
2018-10-05T00:24:32.342Z,15.83
2018-10-05T00:27:02.591Z,17.57
2018-10-05T00:29:34.268Z,15.08
2018-10-05T00:32:03.583Z,15.88
2018-10-05T00:34:33.031Z,14.50
2018-10-05T00:37:03.201Z,13.60
2018-10-05T00:39:34.462Z,16.12
2018-10-05T00:42:03.791Z,13.50
2018-10-05T00:44:33.123Z,16.95
2018-10-05T00:47:02.407Z,16.17
2018-10-05T00:49:32.673Z,15.93
2018-10-05T00:52:02.109Z,18.52
2018-10-05T00:54:31.477Z,13.93
2018-10-05T00:57:00.814Z,14.98
2018-10-05T00:59:30.104Z,15.00
2018-10-05T01:01:59.794Z,15.85
2018-10-05T01:04:31.138Z,14.85
2018-10-05T01:07:00.514Z,11.73
2018-10-05T01:09:32.162Z,16.07
2018-10-05T01:12:01.430Z,11.48
2018-10-05T01:14:30.703Z,17.05
2018-10-05T01:17:00.715Z,15.28
2018-10-05T01:19:31.360Z,12.45
2018-10-05T01:22:00.859Z,14.47
2018-10-05T01:24:30.999Z,11.18
2018-10-05T01:27:01.391Z,12.53
2018-10-05T01:29:32.371Z,9.83
2018-10-05T01:32:01.832Z,10.90
2018-10-05T01:34:31.745Z,12.35
2018-10-05T01:37:01.038Z,11.60
2018-10-05T01:39:30.584Z,12.35
2018-10-05T01:42:00.123Z,12.07
2018-10-05T01:44:29.505Z,11.97
2018-10-05T01:46:58.858Z,12.93
2018-10-05T01:49:28.209Z,10.98
2018-10-05T01:51:57.477Z,11.25
2018-10-05T01:54:27.071Z,11.48
2018-10-05T01:56:56.840Z,11.03
2018-10-05T01:59:26.169Z,10.38
2018-10-05T02:01:56.263Z,9.03
2018-10-05T02:04:25.973Z,9.80
2018-10-05T02:06:56.212Z,8.73
2018-10-05T02:09:26.196Z,12.15
2018-10-05T02:11:55.719Z,11.08
2018-10-05T02:14:25.729Z,8.50
2018-10-05T02:16:57.321Z,11.53
2018-10-05T02:19:26.651Z,11.63
2018-10-05T02:21:56.007Z,8.15
2018-10-05T02:24:27.204Z,9.83
2018-10-05T02:26:56.393Z,11.38
2018-10-05T02:29:27.133Z,9.45
2018-10-05T02:31:56.789Z,10.80
2018-10-05T02:34:27.683Z,12.73
2018-10-05T02:36:56.891Z,8.40
2018-10-05T02:39:26.382Z,8.38
2018-10-05T02:41:55.745Z,8.18
2018-10-05T02:44:25.935Z,10.25
2018-10-05T02:46:55.646Z,8.28
2018-10-05T02:49:25.622Z,9.75
2018-10-05T02:51:55.568Z,7.45
2018-10-05T02:54:24.769Z,8.90
2018-10-05T02:56:54.235Z,10.05
2018-10-05T02:59:23.454Z,10.28
2018-10-05T03:02:04.144Z,7.25
2018-10-05T03:04:34.513Z,9.65
2018-10-05T03:07:05.733Z,8.50
2018-10-05T03:09:37.123Z,7.67
2018-10-05T03:12:06.487Z,9.15
2018-10-05T03:14:36.102Z,11.68
2018-10-05T03:17:05.283Z,9.83
2018-10-05T03:19:35.993Z,8.68
2018-10-05T03:22:07.077Z,7.75
2018-10-05T03:24:36.678Z,9.45
2018-10-05T03:27:07.076Z,9.05
2018-10-05T03:29:37.064Z,9.33
2018-10-05T03:32:07.507Z,9.43
2018-10-05T03:34:36.907Z,9.20
2018-10-05T03:37:06.347Z,8.18
2018-10-05T03:39:35.590Z,7.80
2018-10-05T03:42:05.546Z,10.75
2018-10-05T03:44:38.390Z,11.43
2018-10-05T03:47:07.615Z,9.58
2018-10-05T03:49:36.992Z,8.30
2018-10-05T03:52:06.388Z,10.68
2018-10-05T03:54:36.478Z,8.30
2018-10-05T03:57:07.699Z,8.13
2018-10-05T03:59:36.998Z,8.50
2018-10-05T04:02:07.252Z,9.38
2018-10-05T04:04:36.593Z,9.20
2018-10-05T04:07:06.695Z,11.65
2018-10-05T04:09:36.274Z,9.73
2018-10-05T04:12:07.249Z,6.25
2018-10-05T04:14:36.650Z,8.95
2018-10-05T04:17:06.143Z,8.13
2018-10-05T04:19:35.359Z,6.55
2018-10-05T04:22:05.134Z,8.00
2018-10-05T04:24:34.426Z,8.45
2018-10-05T04:27:03.997Z,7.87
2018-10-05T04:29:33.439Z,7.70
2018-10-05T04:32:02.867Z,7.90
2018-10-05T04:35:06.525Z,8.70
2018-10-05T04:37:35.955Z,13.05
2018-10-05T04:40:05.423Z,12.65
2018-10-05T04:42:34.745Z,9.70
2018-10-05T04:45:04.155Z,10.50
2018-10-05T04:47:33.507Z,9.70
2018-10-05T04:50:02.941Z,10.20
2018-10-05T04:52:32.363Z,9.70
2018-10-05T04:55:01.771Z,9.00
2018-10-05T04:57:31.097Z,9.25
2018-10-05T05:00:00.471Z,8.85
2018-10-05T05:02:29.843Z,8.03
2018-10-05T05:05:00.867Z,9.53
2018-10-05T05:07:30.293Z,11.55
2018-10-05T05:09:59.687Z,9.13
2018-10-05T05:12:29.203Z,8.95
2018-10-05T05:14:58.655Z,7.83
2018-10-05T05:17:29.183Z,8.20
2018-10-05T05:19:58.567Z,9.88
2018-10-05T05:22:27.923Z,9.40
2018-10-05T05:24:57.607Z,12.65
2018-10-05T05:27:27.113Z,7.20
2018-10-05T05:29:56.787Z,8.95
2018-10-05T05:32:26.789Z,10.60
2018-10-05T05:34:57.159Z,10.28
2018-10-05T05:37:27.307Z,7.37
2018-10-05T05:39:56.600Z,11.33
2018-10-05T05:42:26.270Z,11.25
2018-10-05T05:44:55.715Z,11.12
2018-10-05T05:47:25.133Z,10.82
2018-10-05T05:49:55.031Z,10.68
2018-10-05T05:52:24.257Z,8.85
2018-10-05T05:54:54.150Z,11.95
2018-10-05T05:57:23.487Z,12.20
2018-10-05T05:59:53.143Z,10.75
2018-10-05T06:02:22.472Z,10.70
2018-10-05T06:04:51.824Z,9.03
2018-10-05T06:07:21.185Z,9.00
2018-10-05T06:09:51.380Z,10.43
2018-10-05T06:12:21.983Z,8.58
2018-10-05T06:14:51.197Z,12.70
2018-10-05T06:17:20.951Z,10.72
2018-10-05T06:19:50.776Z,10.50
2018-10-05T06:22:20.277Z,10.82
2018-10-05T06:24:49.673Z,10.32
2018-10-05T06:27:19.171Z,10.88
2018-10-05T06:29:49.347Z,10.10
2018-10-05T06:32:18.687Z,12.50
2018-10-05T06:34:48.414Z,9.43
2018-10-05T06:37:17.727Z,12.53
2018-10-05T06:39:50.229Z,9.37
2018-10-05T06:42:19.650Z,12.03
2018-10-05T06:44:49.548Z,11.97
2018-10-05T06:47:18.873Z,11.68
2018-10-05T06:49:49.279Z,9.05
2018-10-05T06:52:18.755Z,11.50
2018-10-05T06:54:48.981Z,12.75
2018-10-05T06:57:18.928Z,9.30
2018-10-05T06:59:48.337Z,14.33
2018-10-05T07:02:17.593Z,9.93
2018-10-05T07:04:46.891Z,13.17
2018-10-05T07:07:16.157Z,11.07
2018-10-05T07:09:45.451Z,11.23
2018-10-05T07:12:15.363Z,11.23
2018-10-05T07:14:44.668Z,12.00
2018-10-05T07:17:14.713Z,11.20
2018-10-05T07:19:44.353Z,10.65
2018-10-05T07:22:13.832Z,9.23
2018-10-05T07:24:44.169Z,12.33
2018-10-05T07:27:13.601Z,13.70
2018-10-05T07:29:42.987Z,11.57
2018-10-05T07:32:12.986Z,11.13
2018-10-05T07:34:42.945Z,9.97
2018-10-05T07:37:12.359Z,11.23
2018-10-05T07:39:41.725Z,11.97
2018-10-05T07:42:12.149Z,12.10
2018-10-05T07:44:41.555Z,14.37
2018-10-05T07:47:12.230Z,13.43
2018-10-05T07:49:41.562Z,13.35
2018-10-05T07:52:10.883Z,9.68
2018-10-05T07:54:40.251Z,13.60
2018-10-05T07:57:09.607Z,10.88
2018-10-05T07:59:39.109Z,10.50
2018-10-05T08:02:08.707Z,12.73
2018-10-05T08:04:38.186Z,11.73
2018-10-05T08:07:07.647Z,12.15
2018-10-05T08:09:37.291Z,10.38
2018-10-05T08:12:07.448Z,11.85
2018-10-05T08:14:36.891Z,12.00
2018-10-05T08:17:06.350Z,13.28
2018-10-05T08:19:35.685Z,12.33
2018-10-05T08:22:06.036Z,10.90
2018-10-05T08:24:35.519Z,10.30
2018-10-05T08:27:04.982Z,12.13
2018-10-05T08:29:34.226Z,10.60
2018-10-05T08:32:03.603Z,14.70
2018-10-05T08:34:32.981Z,10.63
2018-10-05T08:37:02.247Z,10.18
2018-10-05T08:39:32.631Z,11.12
2018-10-05T08:42:02.775Z,10.33
2018-10-05T08:44:33.814Z,12.18
2018-10-05T08:47:03.692Z,10.80
2018-10-05T08:49:35.295Z,12.25
2018-10-05T08:52:04.743Z,8.43
2018-10-05T08:54:34.025Z,12.93
2018-10-05T08:57:03.487Z,10.33
2018-10-05T08:59:32.775Z,12.68
2018-10-05T09:02:02.154Z,14.30
2018-10-05T09:04:31.475Z,12.95
2018-10-05T09:07:01.611Z,9.03
2018-10-05T09:09:30.966Z,11.87
2018-10-05T09:12:00.319Z,9.90
2018-10-05T09:14:29.623Z,12.73
2018-10-05T09:16:59.027Z,11.90
2018-10-05T09:19:28.403Z,11.60
2018-10-05T09:21:58.243Z,11.97
2018-10-05T09:24:27.547Z,13.27
2018-10-05T09:26:56.911Z,11.33
2018-10-05T09:29:26.653Z,12.47
2018-10-05T09:31:55.954Z,10.30
2018-10-05T09:34:25.204Z,11.93
2018-10-05T09:36:54.995Z,14.90
2018-10-05T09:39:24.408Z,15.33
2018-10-05T09:41:53.783Z,10.53
2018-10-05T09:44:23.184Z,12.90
2018-10-05T09:46:53.558Z,10.13
2018-10-05T09:49:22.895Z,11.00
2018-10-05T09:51:52.240Z,12.20
2018-10-05T09:54:21.870Z,9.50
2018-10-05T09:56:53.561Z,10.70
2018-10-05T09:59:23.458Z,20.97
2018-10-05T10:02:55.423Z,13.13
2018-10-05T10:05:25.763Z,9.87
2018-10-05T10:07:55.622Z,12.67
2018-10-05T10:10:24.927Z,13.47
2018-10-05T10:12:54.161Z,13.43
2018-10-05T10:15:24.470Z,12.73
2018-10-05T10:17:54.110Z,12.27
2018-10-05T10:20:23.474Z,12.10
2018-10-05T10:22:52.741Z,12.37
2018-10-05T10:25:22.127Z,10.40
2018-10-05T10:27:51.818Z,10.00
2018-10-05T10:30:21.099Z,13.93
2018-10-05T10:32:50.534Z,10.87
2018-10-05T10:35:19.983Z,11.43
2018-10-05T10:37:49.304Z,14.13
2018-10-05T10:40:18.621Z,12.47
2018-10-05T10:42:47.964Z,12.47
2018-10-05T10:45:17.405Z,14.10
2018-10-05T10:47:46.836Z,11.80
2018-10-05T10:50:16.234Z,14.60
2018-10-05T10:52:45.570Z,15.07
2018-10-05T10:55:14.912Z,10.30
2018-10-05T10:57:44.306Z,13.27
2018-10-05T11:00:14.126Z,11.60
2018-10-05T11:02:43.467Z,12.30
2018-10-05T11:05:12.824Z,11.50
2018-10-05T11:07:42.293Z,13.40
2018-10-05T11:10:11.726Z,10.20
2018-10-05T11:12:41.068Z,15.25
2018-10-05T11:15:10.577Z,17.82
2018-10-05T11:17:39.914Z,12.90
2018-10-05T11:20:09.292Z,10.83
2018-10-05T11:22:38.636Z,11.67
2018-10-05T11:25:08.052Z,13.33
2018-10-05T11:27:37.490Z,13.73
2018-10-05T11:30:07.854Z,10.93
2018-10-05T11:32:37.399Z,13.40
2018-10-05T11:35:07.180Z,13.10
2018-10-05T11:37:36.523Z,13.77
2018-10-05T11:40:05.991Z,13.30
2018-10-05T11:42:35.439Z,12.20
2018-10-05T11:45:05.026Z,11.33
2018-10-05T11:47:34.409Z,13.87
2018-10-05T11:50:05.018Z,11.60
2018-10-05T11:52:34.637Z,15.43
2018-10-05T11:55:04.120Z,12.70
2018-10-05T11:57:33.794Z,10.83
2018-10-05T12:00:03.233Z,14.00
2018-10-05T12:02:34.432Z,10.00
2018-10-05T12:05:04.071Z,12.87
2018-10-05T12:07:33.410Z,11.30
2018-10-05T12:10:03.912Z,12.47
2018-10-05T12:12:33.977Z,13.13
2018-10-05T12:15:03.302Z,17.10
2018-10-05T12:17:32.782Z,14.63
2018-10-05T12:20:02.284Z,12.37
2018-10-05T12:22:32.710Z,15.30
2018-10-05T12:25:02.349Z,13.20
2018-10-05T12:27:31.751Z,15.53
2018-10-05T12:30:03.197Z,15.90
2018-10-05T12:32:32.624Z,12.53
2018-10-05T12:35:02.009Z,13.80
2018-10-05T12:37:36.020Z,14.53
2018-10-05T12:40:06.805Z,14.30
2018-10-05T12:42:36.621Z,17.63
2018-10-05T12:45:06.939Z,12.83
2018-10-05T12:47:37.698Z,18.17
2018-10-05T12:50:08.179Z,16.10
2018-10-05T12:52:37.520Z,12.10
2018-10-05T12:55:06.927Z,17.40
2018-10-05T12:57:36.177Z,15.00
2018-10-05T13:00:07.052Z,15.43
2018-10-05T13:02:36.553Z,15.00
2018-10-05T13:05:14.617Z,18.40
2018-10-05T13:07:45.617Z,15.33
2018-10-05T13:10:15.399Z,17.70
2018-10-05T13:12:45.787Z,14.90
2018-10-05T13:15:16.537Z,17.33
2018-10-05T13:17:46.197Z,14.37
2018-10-05T13:20:22.093Z,15.10
2018-10-05T13:22:52.565Z,12.97
2018-10-05T13:25:22.647Z,13.87
2018-10-05T13:27:52.345Z,14.00
2018-10-05T13:30:22.121Z,14.40
2018-10-05T13:32:51.836Z,13.10
2018-10-05T13:35:22.167Z,15.07
2018-10-05T13:37:52.906Z,12.20
2018-10-05T13:40:22.497Z,13.70
2018-10-05T13:42:52.650Z,11.70
2018-10-05T13:45:22.643Z,13.37
2018-10-05T13:47:51.999Z,17.60
2018-10-05T13:50:26.875Z,15.50
2018-10-05T13:52:57.089Z,13.73
2018-10-05T13:55:26.540Z,13.33
2018-10-05T13:57:56.532Z,12.10
2018-10-05T14:00:26.260Z,9.83
2018-10-05T14:02:57.358Z,17.90
2018-10-05T14:05:32.360Z,17.23
2018-10-05T14:08:01.751Z,13.43
2018-10-05T14:10:31.951Z,14.13
2018-10-05T14:13:09.159Z,11.60
2018-10-05T14:15:39.477Z,11.80
2018-10-05T14:18:11.231Z,12.93
2018-10-05T14:20:40.654Z,12.47
2018-10-05T14:23:10.019Z,14.60
2018-10-05T14:25:39.488Z,16.77
2018-10-05T14:28:08.831Z,13.20
2018-10-05T14:30:38.229Z,13.03
2018-10-05T14:33:07.627Z,11.13
2018-10-05T14:35:38.175Z,11.60
2018-10-05T14:38:07.546Z,12.60
2018-10-05T14:40:36.841Z,12.33
2018-10-05T14:43:06.121Z,13.50
2018-10-05T14:45:35.755Z,11.57
2018-10-05T14:48:06.073Z,9.90
2018-10-05T14:50:35.574Z,12.43
2018-10-05T14:53:04.921Z,8.73
2018-10-05T14:55:34.251Z,8.60
2018-10-05T14:58:03.531Z,24.33
2018-10-05T15:00:34.494Z,10.03
2018-10-05T15:03:05.379Z,9.43
2018-10-05T15:05:35.843Z,8.07
2018-10-05T15:08:05.615Z,8.00
2018-10-05T15:10:35.741Z,9.57
2018-10-05T15:13:05.056Z,9.20
2018-10-05T15:15:34.406Z,8.37
2018-10-05T15:18:03.985Z,8.70
2018-10-05T15:20:33.346Z,7.50
2018-10-05T15:23:02.616Z,5.87
2018-10-05T15:25:32.029Z,6.23
2018-10-05T15:28:01.669Z,6.03
2018-10-05T15:30:31.754Z,8.10
2018-10-05T15:33:03.440Z,6.03
2018-10-05T15:35:33.524Z,6.60
2018-10-05T15:38:04.619Z,6.97
2018-10-05T15:40:34.657Z,6.43
2018-10-05T15:43:03.969Z,7.00
2018-10-05T15:45:33.577Z,4.57
2018-10-05T15:48:02.925Z,5.73
2018-10-05T15:50:33.507Z,5.80
2018-10-05T15:53:03.027Z,7.57
2018-10-05T15:55:32.337Z,6.77
2018-10-05T15:58:02.905Z,7.67
2018-10-05T16:00:32.331Z,5.67
2018-10-05T16:03:02.395Z,6.60
2018-10-05T16:05:32.452Z,7.97
2018-10-05T16:08:01.693Z,8.17
2018-10-05T16:10:31.855Z,12.53
2018-10-05T16:13:01.794Z,5.77
2018-10-05T16:15:31.291Z,5.97
2018-10-05T16:18:00.752Z,5.57
2018-10-05T16:20:30.002Z,6.47
2018-10-05T16:22:59.255Z,6.93
2018-10-05T16:25:28.542Z,6.10
2018-10-05T16:27:57.785Z,6.67
2018-10-05T16:30:27.202Z,8.23
2018-10-05T16:32:56.594Z,7.10
2018-10-05T16:35:25.834Z,9.10
2018-10-05T16:37:55.069Z,6.30
2018-10-05T16:40:24.852Z,8.13
2018-10-05T16:42:54.533Z,6.83
2018-10-05T16:45:24.320Z,9.33
2018-10-05T16:47:55.601Z,6.47
2018-10-05T16:50:25.166Z,4.10
2018-10-05T16:52:54.702Z,7.33
2018-10-05T16:55:24.218Z,8.80
2018-10-05T16:57:53.818Z,5.70
2018-10-05T17:00:23.498Z,5.97
2018-10-05T17:02:52.879Z,5.60
2018-10-05T17:05:22.310Z,7.20
2018-10-05T17:07:51.806Z,6.85
2018-10-05T17:10:23.933Z,6.30
2018-10-05T17:12:55.126Z,7.10
2018-10-05T17:15:24.479Z,8.33
2018-10-05T17:17:53.902Z,7.70
2018-10-05T17:20:23.251Z,9.20
2018-10-05T17:22:52.634Z,7.22
2018-10-05T17:25:22.006Z,7.78
2018-10-05T17:27:51.640Z,8.67
2018-10-05T17:30:21.032Z,7.40
2018-10-05T17:32:50.401Z,10.32
2018-10-05T17:35:19.856Z,9.50
2018-10-05T17:37:49.329Z,8.83
2018-10-05T17:40:18.816Z,10.38
2018-10-05T17:46:19.084Z,10.13
2018-10-05T17:48:48.534Z,9.75
2018-10-05T17:51:17.983Z,8.00
2018-10-05T17:53:47.444Z,10.75
2018-10-05T17:56:16.950Z,10.10
2018-10-05T17:58:46.615Z,8.57
2018-10-05T18:01:16.043Z,10.43
2018-10-05T18:03:45.396Z,9.20
2018-10-05T18:06:14.883Z,10.72
2018-10-05T18:08:44.278Z,9.48
2018-10-05T18:11:14.036Z,11.80
2018-10-05T18:13:43.616Z,12.70
2018-10-05T18:16:13.254Z,9.63
2018-10-05T18:18:42.646Z,11.55
2018-10-05T18:21:11.983Z,14.95
2018-10-05T18:23:41.444Z,14.40
2018-10-05T18:26:10.870Z,10.83
2018-10-05T18:28:40.247Z,11.73
2018-10-05T18:31:09.656Z,9.83
2018-10-05T18:33:38.987Z,9.20
2018-10-05T18:36:16.345Z,10.20
2018-10-05T18:38:45.604Z,10.40
2018-10-05T18:41:14.963Z,9.20
2018-10-05T18:43:45.737Z,9.03
2018-10-05T18:46:17.746Z,10.25
2018-10-05T18:48:47.136Z,10.53
2018-10-05T18:51:17.201Z,14.43
2018-10-05T18:53:46.359Z,9.40
2018-10-05T18:56:28.505Z,8.90
2018-10-05T18:58:58.013Z,8.68
2018-10-05T19:01:27.346Z,13.62
2018-10-05T19:03:56.724Z,9.55
2018-10-05T19:06:26.090Z,12.82
2018-10-05T19:08:55.438Z,10.38
2018-10-05T19:11:24.799Z,9.40
2018-10-05T19:13:54.194Z,9.58
2018-10-05T19:16:23.726Z,8.97
2018-10-05T19:18:53.030Z,11.33
2018-10-05T19:21:23.044Z,12.15
2018-10-05T19:23:52.422Z,10.32
2018-10-05T19:26:22.050Z,10.65
2018-10-05T19:28:51.246Z,11.33
2018-10-05T19:31:20.563Z,11.08
2018-10-05T19:33:49.999Z,10.75
2018-10-05T19:36:19.371Z,10.43
2018-10-05T19:38:48.787Z,10.70
2018-10-05T19:41:18.172Z,12.27
2018-10-05T19:43:47.604Z,12.37
2018-10-05T19:46:16.983Z,11.83
2018-10-05T19:48:46.730Z,13.90
2018-10-05T19:51:16.134Z,13.72
2018-10-05T19:53:45.622Z,13.88
2018-10-05T19:56:15.012Z,10.45
2018-10-05T19:58:45.844Z,9.95
2018-10-05T20:01:15.452Z,12.13
2018-10-05T20:03:44.880Z,10.78
2018-10-05T20:06:14.341Z,12.53
2018-10-05T20:08:43.725Z,9.13
2018-10-05T20:11:13.166Z,10.90
2018-10-05T20:13:42.501Z,10.45
2018-10-05T20:16:11.887Z,10.70
2018-10-05T20:18:41.315Z,10.57
2018-10-05T20:21:10.960Z,9.95
2018-10-05T20:23:40.492Z,12.68
2018-10-05T20:26:09.854Z,11.50
2018-10-05T20:28:39.169Z,11.28
2018-10-05T20:31:08.542Z,10.28
2018-10-05T20:33:37.860Z,13.45
2018-10-05T20:36:07.383Z,13.72
2018-10-05T20:38:36.676Z,10.50
2018-10-05T20:41:06.080Z,12.25
2018-10-05T20:43:35.459Z,12.30
2018-10-05T20:46:05.734Z,12.60
2018-10-05T20:48:35.124Z,10.63
2018-10-05T20:51:04.523Z,13.75
2018-10-05T20:53:33.863Z,14.47
2018-10-05T20:56:03.360Z,11.80
2018-10-05T20:58:32.728Z,13.93
2018-10-05T21:01:03.602Z,11.75
2018-10-05T21:03:32.946Z,14.05
2018-10-05T21:06:02.362Z,14.20
2018-10-05T21:08:31.756Z,11.53
2018-10-05T21:11:01.414Z,11.55
2018-10-05T21:13:30.779Z,11.25
2018-10-05T21:16:00.207Z,13.45
2018-10-05T21:18:29.552Z,12.15
2018-10-05T21:21:00.540Z,12.85
2018-10-05T21:23:29.796Z,12.82
2018-10-05T21:25:59.034Z,14.75
2018-10-05T21:28:28.296Z,16.60
2018-10-05T21:30:57.841Z,14.00
2018-10-05T21:33:27.833Z,11.60
2018-10-05T21:35:57.159Z,11.80
2018-10-05T21:38:26.463Z,11.33
2018-10-05T21:40:55.852Z,10.60
2018-10-05T21:43:25.206Z,11.80
2018-10-05T21:45:54.719Z,12.90
2018-10-05T21:48:24.237Z,11.15
2018-10-05T21:50:53.642Z,11.48
2018-10-05T21:53:23.060Z,10.48
2018-10-05T21:55:52.716Z,9.73
2018-10-05T21:58:22.154Z,11.85
2018-10-05T22:00:51.582Z,12.65
2018-10-05T22:03:22.101Z,13.05
2018-10-05T22:05:51.512Z,10.03
2018-10-05T22:08:21.050Z,10.03
2018-10-05T22:10:50.754Z,10.70
2018-10-05T22:13:20.186Z,10.43
2018-10-05T22:15:49.638Z,9.53
2018-10-05T22:18:20.607Z,11.20
2018-10-05T22:20:50.023Z,10.63
2018-10-05T22:23:19.754Z,13.78
2018-10-05T22:25:49.174Z,10.88
2018-10-05T22:28:18.655Z,11.35
2018-10-05T22:30:47.965Z,12.55
2018-10-05T22:33:17.606Z,10.43
2018-10-05T22:35:47.041Z,13.22
2018-10-05T22:38:16.474Z,11.48
2018-10-05T22:40:45.882Z,12.18
2018-10-05T22:43:15.288Z,12.90
2018-10-05T22:45:44.831Z,9.68
2018-10-05T22:48:15.180Z,13.35
2018-10-05T22:50:45.439Z,10.60
2018-10-05T22:53:14.936Z,11.35
2018-10-05T22:55:44.571Z,13.72
2018-10-05T22:58:14.055Z,11.30
2018-10-05T23:00:43.447Z,10.75
2018-10-05T23:03:12.821Z,12.35
2018-10-05T23:05:43.689Z,12.98
2018-10-05T23:08:13.441Z,13.08
2018-10-05T23:10:42.838Z,12.07
2018-10-05T23:13:12.210Z,14.18
2018-10-05T23:15:41.576Z,10.28
2018-10-05T23:18:10.980Z,11.80
2018-10-05T23:20:41.214Z,13.48
2018-10-05T23:23:10.714Z,13.75
2018-10-05T23:25:40.017Z,14.13
2018-10-05T23:28:09.925Z,15.15
2018-10-05T23:30:39.291Z,12.78
2018-10-05T23:33:08.699Z,12.90
2018-10-05T23:35:38.000Z,12.98
2018-10-05T23:38:07.530Z,16.70
2018-10-05T23:40:36.834Z,17.45
2018-10-05T23:43:06.233Z,12.73
2018-10-05T23:45:35.647Z,12.45
2018-10-05T23:48:05.038Z,13.40
2018-10-05T23:50:34.399Z,14.25
2018-10-05T23:53:03.787Z,16.75
2018-10-05T23:55:33.388Z,15.23
2018-10-05T23:58:02.870Z,14.55
